createdAt,value
2023-03-18T08:35:25.771Z,13.15
2023-03-18T08:37:52.269Z,13.26
2023-03-18T08:40:19.603Z,13.43
2023-03-18T08:43:03.647Z,13.61
2023-03-18T08:45:30.100Z,13.78
2023-03-18T08:48:07.238Z,13.87
2023-03-18T08:50:37.781Z,13.91
2023-03-18T08:53:05.706Z,13.92
2023-03-18T08:55:37.181Z,13.93
2023-03-18T08:58:05.735Z,14.01
2023-03-18T09:00:34.884Z,14.00
2023-03-18T09:03:03.617Z,13.99
2023-03-18T09:05:31.395Z,14.04
2023-03-18T09:07:58.842Z,14.11
2023-03-18T09:10:26.504Z,14.22
2023-03-18T09:12:53.038Z,14.17
2023-03-18T09:15:20.774Z,13.98
2023-03-18T09:18:03.774Z,13.83
2023-03-18T09:20:36.140Z,13.66
2023-03-18T09:23:12.990Z,13.53
2023-03-18T09:25:42.485Z,13.56
2023-03-18T09:28:08.889Z,13.49
2023-03-18T09:30:36.162Z,13.56
2023-03-18T09:33:02.976Z,13.60
2023-03-18T09:35:29.502Z,13.49
2023-03-18T09:38:02.703Z,13.40
2023-03-18T09:40:32.615Z,13.42
2023-03-18T09:43:30.096Z,13.50
2023-03-18T09:46:09.580Z,13.54
2023-03-18T09:49:10.045Z,13.55
2023-03-18T09:51:57.513Z,13.58
2023-03-18T09:54:39.708Z,13.71
2023-03-18T09:57:15.379Z,13.78
2023-03-18T09:59:47.460Z,13.85
2023-03-18T10:02:38.600Z,14.04
2023-03-18T10:05:31.517Z,14.23
2023-03-18T10:08:13.927Z,14.33
2023-03-18T10:10:48.876Z,14.45
2023-03-18T10:13:22.938Z,14.53
2023-03-18T10:15:56.764Z,14.59
2023-03-18T10:18:38.051Z,14.61
2023-03-18T10:21:51.142Z,14.70
2023-03-18T10:24:36.276Z,14.72
2023-03-18T10:27:34.825Z,14.64
2023-03-18T10:30:22.239Z,14.62
2023-03-18T10:32:54.679Z,14.58
2023-03-18T10:35:37.792Z,14.63
2023-03-18T10:38:09.271Z,14.73
2023-03-18T10:40:40.271Z,14.82
2023-03-18T10:43:16.872Z,14.92
2023-03-18T10:45:45.202Z,15.07
2023-03-18T10:48:15.108Z,15.16
2023-03-18T10:50:52.570Z,15.15
2023-03-18T10:53:42.148Z,15.16
2023-03-18T10:56:11.318Z,15.18
2023-03-18T10:58:38.802Z,15.20
2023-03-18T11:01:11.898Z,15.33
2023-03-18T11:03:52.181Z,15.41
2023-03-18T11:06:35.535Z,15.52
2023-03-18T11:09:09.046Z,15.58
2023-03-18T11:11:39.186Z,15.56
2023-03-18T11:14:13.036Z,15.50
2023-03-18T11:16:44.916Z,15.53
2023-03-18T11:19:25.924Z,15.46
2023-03-18T11:22:02.063Z,15.37
2023-03-18T11:24:48.943Z,15.23
2023-03-18T11:27:15.950Z,15.16
2023-03-18T11:29:46.992Z,15.13
2023-03-18T11:32:28.066Z,15.13
2023-03-18T11:34:58.964Z,15.11
2023-03-18T11:37:34.724Z,15.05
2023-03-18T11:40:13.385Z,15.00
2023-03-18T11:42:43.815Z,14.97
2023-03-18T11:45:31.936Z,14.91
2023-03-18T11:47:58.771Z,14.85
2023-03-18T11:50:34.110Z,14.84
2023-03-18T11:53:21.203Z,14.81
2023-03-18T11:56:27.277Z,14.78
2023-03-18T11:59:15.236Z,14.74
2023-03-18T12:02:13.235Z,14.73
2023-03-18T12:05:08.153Z,14.76
2023-03-18T12:07:58.728Z,14.78
2023-03-18T12:10:30.047Z,14.76
2023-03-18T12:13:22.820Z,14.74
2023-03-18T12:16:17.373Z,14.81
2023-03-18T12:19:05.640Z,14.91
2023-03-18T12:21:58.081Z,14.98
2023-03-18T12:24:58.647Z,14.97
2023-03-18T12:27:42.793Z,14.94
2023-03-18T12:30:36.730Z,14.91
2023-03-18T12:33:16.510Z,14.90
2023-03-18T12:35:57.414Z,14.84
2023-03-18T12:38:56.537Z,14.80
2023-03-18T12:41:50.155Z,14.79
2023-03-18T12:44:19.543Z,14.74
2023-03-18T12:46:49.374Z,14.71
2023-03-18T12:49:22.382Z,14.66
2023-03-18T12:52:00.489Z,14.66
2023-03-18T12:54:30.935Z,14.65
2023-03-18T12:57:03.892Z,14.66
2023-03-18T12:59:39.113Z,14.66
2023-03-18T13:02:24.123Z,14.61
2023-03-18T13:04:59.816Z,14.54
2023-03-18T13:07:44.895Z,14.52
2023-03-18T13:10:24.310Z,14.51
2023-03-18T13:13:03.862Z,14.49
2023-03-18T13:15:42.816Z,14.44
2023-03-18T13:18:16.904Z,14.42
2023-03-18T13:20:44.771Z,14.40
2023-03-18T13:23:32.870Z,14.39
2023-03-18T13:26:22.210Z,14.33
2023-03-18T13:29:02.354Z,14.25
2023-03-18T13:31:52.944Z,14.12
2023-03-18T13:34:59.193Z,14.00
2023-03-18T13:38:06.092Z,13.98
2023-03-18T13:40:43.300Z,14.00
2023-03-18T13:43:16.635Z,14.06
2023-03-18T13:45:47.356Z,14.10
2023-03-18T13:48:18.197Z,14.13
2023-03-18T13:50:47.577Z,14.19
2023-03-18T13:53:43.898Z,14.19
2023-03-18T13:56:45.660Z,14.20
2023-03-18T13:59:33.604Z,14.17
2023-03-18T14:02:37.666Z,14.19
2023-03-18T14:05:36.127Z,14.24
2023-03-18T14:08:43.836Z,14.30
2023-03-18T14:11:16.629Z,14.35
2023-03-18T14:13:52.995Z,14.34
2023-03-18T14:16:45.434Z,14.37
2023-03-18T14:19:20.787Z,14.39
2023-03-18T14:22:08.158Z,14.38
2023-03-18T14:24:34.988Z,14.38
2023-03-18T14:27:04.266Z,14.36
2023-03-18T14:29:42.160Z,14.34
2023-03-18T14:32:34.408Z,14.35
2023-03-18T14:35:27.728Z,14.36
2023-03-18T14:37:58.909Z,14.37
2023-03-18T14:40:25.668Z,14.37
2023-03-18T14:43:00.824Z,14.38
2023-03-18T14:45:41.521Z,14.45
2023-03-18T14:48:35.260Z,14.51
2023-03-18T14:51:11.775Z,14.49
2023-03-18T14:54:06.763Z,14.46
2023-03-18T14:56:41.708Z,14.49
2023-03-18T14:59:17.450Z,14.62
2023-03-18T15:01:50.631Z,14.73
2023-03-18T15:04:25.715Z,14.80
2023-03-18T15:06:54.911Z,14.86
2023-03-18T15:09:27.198Z,14.91
2023-03-18T15:11:54.754Z,14.99
2023-03-18T15:14:32.667Z,15.03
2023-03-18T15:17:01.312Z,15.06
2023-03-18T15:19:29.219Z,15.07
2023-03-18T15:22:05.722Z,15.04
2023-03-18T15:24:32.818Z,15.02
2023-03-18T15:27:05.793Z,15.02
2023-03-18T15:29:36.301Z,15.01
2023-03-18T15:32:19.077Z,15.04
2023-03-18T15:34:52.996Z,15.09
2023-03-18T15:37:34.167Z,14.96
2023-03-18T15:40:32.056Z,14.80
2023-03-18T15:43:10.393Z,14.76
2023-03-18T15:45:47.433Z,14.68
2023-03-18T15:48:40.229Z,14.63
2023-03-18T15:51:41.710Z,14.70
2023-03-18T15:54:24.763Z,14.77
2023-03-18T15:56:52.682Z,14.83
2023-03-18T15:59:27.021Z,14.92
2023-03-18T16:01:55.130Z,14.95
2023-03-18T16:04:22.637Z,14.97
2023-03-18T16:06:49.109Z,14.96
2023-03-18T16:09:23.729Z,14.90
2023-03-18T16:12:05.682Z,14.86
2023-03-18T16:14:42.894Z,14.86
2023-03-18T16:17:13.483Z,14.85
2023-03-18T16:19:39.984Z,14.85
2023-03-18T16:22:06.439Z,14.85
2023-03-18T16:24:32.828Z,14.83
2023-03-18T16:26:59.449Z,14.79
2023-03-18T16:29:34.116Z,14.71
2023-03-18T16:32:01.049Z,14.68
2023-03-18T16:34:27.920Z,14.67
2023-03-18T16:36:55.252Z,14.65
2023-03-18T16:39:34.374Z,14.60
2023-03-18T16:42:02.245Z,14.57
2023-03-18T16:44:28.624Z,14.53
2023-03-18T16:46:56.573Z,14.44
2023-03-18T16:49:25.610Z,14.39
2023-03-18T16:51:52.008Z,14.32
2023-03-18T16:54:21.092Z,14.24
2023-03-18T16:56:49.382Z,14.20
2023-03-18T16:59:15.893Z,14.15
2023-03-18T17:01:43.865Z,14.11
2023-03-18T17:04:32.888Z,14.01
2023-03-18T17:07:02.051Z,13.95
2023-03-18T17:09:28.434Z,13.91
2023-03-18T17:12:00.671Z,13.85
2023-03-18T17:14:39.952Z,13.82
2023-03-18T17:17:11.522Z,13.78
2023-03-18T17:19:39.781Z,13.73
2023-03-18T17:22:24.428Z,13.69
2023-03-18T17:24:51.083Z,13.63
2023-03-18T17:27:25.535Z,13.58
2023-03-18T17:29:53.171Z,13.51
2023-03-18T17:32:19.720Z,13.45
2023-03-18T17:34:48.151Z,13.34
2023-03-18T17:37:14.515Z,13.27
2023-03-18T17:39:40.899Z,13.20
2023-03-18T17:42:24.820Z,13.14
2023-03-18T17:44:51.205Z,13.08
2023-03-18T17:47:17.920Z,13.04
2023-03-18T17:49:44.335Z,13.00
2023-03-18T17:52:15.646Z,12.95
2023-03-18T17:54:42.515Z,12.93
2023-03-18T17:57:14.301Z,12.87
2023-03-18T17:59:41.004Z,12.82
2023-03-18T18:02:18.012Z,12.76
2023-03-18T18:04:45.159Z,12.72
2023-03-18T18:07:21.727Z,12.68
2023-03-18T18:09:49.491Z,12.63
2023-03-18T18:12:21.982Z,12.55
2023-03-18T18:14:49.514Z,12.47
2023-03-18T18:17:18.020Z,12.43
2023-03-18T18:19:44.410Z,12.36
2023-03-18T18:22:20.772Z,12.29
2023-03-18T18:24:48.330Z,12.20
2023-03-18T18:27:15.675Z,12.12
2023-03-18T18:29:45.916Z,12.06
2023-03-18T18:32:12.870Z,12.02
2023-03-18T18:34:39.277Z,12.00
2023-03-18T18:37:05.692Z,12.01
2023-03-18T18:39:32.084Z,12.01
2023-03-18T18:41:58.430Z,11.99
2023-03-18T18:44:24.823Z,12.01
2023-03-18T18:46:51.274Z,12.02
2023-03-18T18:49:24.106Z,12.05
2023-03-18T18:51:55.586Z,12.08
2023-03-18T18:54:23.220Z,12.13
2023-03-18T18:56:50.005Z,12.18
2023-03-18T18:59:26.917Z,12.20
2023-03-18T19:01:55.330Z,12.25
2023-03-18T19:04:21.924Z,12.27
2023-03-18T19:06:52.234Z,12.24
2023-03-18T19:09:21.889Z,12.26
2023-03-18T19:11:50.069Z,12.30
2023-03-18T19:14:24.464Z,12.32
2023-03-18T19:16:52.049Z,12.31
2023-03-18T19:19:21.055Z,12.35
2023-03-18T19:21:47.723Z,12.36
2023-03-18T19:24:31.089Z,12.38
2023-03-18T19:27:02.039Z,12.40
2023-03-18T19:29:28.848Z,12.40
2023-03-18T19:31:55.284Z,12.40
2023-03-18T19:34:22.933Z,12.40
2023-03-18T19:36:53.123Z,12.41
2023-03-18T19:39:22.017Z,12.42
2023-03-18T19:41:48.920Z,12.42
2023-03-18T19:44:23.299Z,12.44
2023-03-18T19:46:52.897Z,12.42
2023-03-18T19:49:25.444Z,12.42
2023-03-18T19:51:52.526Z,12.39
2023-03-18T19:54:28.759Z,12.39
2023-03-18T19:56:57.330Z,12.33
2023-03-18T19:59:25.310Z,12.31
2023-03-18T20:01:51.691Z,12.31
2023-03-18T20:04:19.591Z,12.36
2023-03-18T20:06:50.108Z,12.43
2023-03-18T20:09:17.782Z,12.47
2023-03-18T20:11:45.690Z,12.51
2023-03-18T20:14:37.833Z,12.54
2023-03-18T20:17:30.922Z,12.57
2023-03-18T20:19:57.620Z,12.55
2023-03-18T20:22:28.965Z,12.46
2023-03-18T20:24:55.578Z,12.36
2023-03-18T20:27:22.145Z,12.29
2023-03-18T20:29:48.651Z,12.21
2023-03-18T20:32:15.029Z,12.09
2023-03-18T20:34:41.653Z,12.02
2023-03-18T20:37:37.738Z,11.97
2023-03-18T20:40:07.386Z,11.88
2023-03-18T20:42:33.954Z,11.84
2023-03-18T20:45:00.362Z,11.77
2023-03-18T20:47:26.742Z,11.79
2023-03-18T20:49:54.638Z,11.75
2023-03-18T20:52:28.507Z,11.73
2023-03-18T20:54:56.637Z,11.68
2023-03-18T20:57:24.203Z,11.69
2023-03-18T20:59:51.532Z,11.67
2023-03-18T21:02:45.528Z,11.64
2023-03-18T21:05:12.918Z,11.62
2023-03-18T21:07:39.678Z,11.58
2023-03-18T21:10:07.665Z,11.58
2023-03-18T21:12:35.459Z,11.55
2023-03-18T21:15:01.922Z,11.55
2023-03-18T21:17:28.373Z,11.55
2023-03-18T21:20:00.761Z,11.52
2023-03-18T21:22:33.235Z,11.46
2023-03-18T21:24:59.610Z,11.45
2023-03-18T21:27:27.904Z,11.42
2023-03-18T21:29:57.815Z,11.36
2023-03-18T21:32:25.516Z,11.39
2023-03-18T21:34:52.637Z,11.40
2023-03-18T21:37:22.140Z,11.39
2023-03-18T21:39:49.577Z,11.41
2023-03-18T21:42:24.565Z,11.42
2023-03-18T21:44:51.850Z,11.41
2023-03-18T21:47:21.145Z,11.40
2023-03-18T21:49:47.911Z,11.41
2023-03-18T21:52:36.108Z,11.44
2023-03-18T21:55:03.495Z,11.41
2023-03-18T21:57:30.065Z,11.40
2023-03-18T21:59:56.533Z,11.42
2023-03-18T22:02:34.204Z,11.39
2023-03-18T22:05:03.550Z,11.38
2023-03-18T22:07:31.417Z,11.37
2023-03-18T22:09:58.131Z,11.38
2023-03-18T22:12:27.928Z,11.38
2023-03-18T22:14:54.925Z,11.38
2023-03-18T22:17:23.014Z,11.40
2023-03-18T22:19:49.814Z,11.37
2023-03-18T22:22:19.324Z,11.36
2023-03-18T22:24:45.750Z,11.37
2023-03-18T22:27:20.592Z,11.40
2023-03-18T22:29:48.310Z,11.38
2023-03-18T22:32:40.314Z,11.37
2023-03-18T22:35:13.928Z,11.39
2023-03-18T22:37:41.308Z,11.39
2023-03-18T22:40:14.620Z,11.40
2023-03-18T22:42:40.990Z,11.40
2023-03-18T22:45:19.888Z,11.42
2023-03-18T22:47:46.459Z,11.43
2023-03-18T22:50:12.837Z,11.40
2023-03-18T22:52:39.641Z,11.40
2023-03-18T22:55:17.665Z,11.41
2023-03-18T22:57:44.064Z,11.38
2023-03-18T23:00:20.743Z,11.35
2023-03-18T23:02:50.226Z,11.34
2023-03-18T23:05:19.143Z,11.32
2023-03-18T23:07:45.605Z,11.28
2023-03-18T23:10:12.631Z,11.29
2023-03-18T23:12:39.008Z,11.28
2023-03-18T23:15:06.243Z,11.27
2023-03-18T23:17:32.678Z,11.27
2023-03-18T23:19:59.297Z,11.30
2023-03-18T23:22:30.251Z,11.28
2023-03-18T23:24:57.471Z,11.29
2023-03-18T23:27:26.213Z,11.26
2023-03-18T23:29:52.784Z,11.25
2023-03-18T23:32:19.869Z,11.26
2023-03-18T23:34:47.367Z,11.25
2023-03-18T23:37:14.603Z,11.23
2023-03-18T23:39:43.180Z,11.25
2023-03-18T23:42:11.631Z,11.24
2023-03-18T23:44:38.613Z,11.23
2023-03-18T23:47:06.201Z,11.23
2023-03-18T23:49:33.556Z,11.21
2023-03-18T23:52:08.160Z,11.17
2023-03-18T23:54:34.743Z,11.15
2023-03-18T23:57:01.932Z,11.16
2023-03-18T23:59:28.679Z,11.14
